createdAt,value
2022-12-23T00:00:41.705Z,28.08
2022-12-23T00:03:09.252Z,29.13
2022-12-23T00:05:40.801Z,28.27
2022-12-23T00:08:08.137Z,26.63
2022-12-23T00:10:39.081Z,31.02
2022-12-23T00:13:25.300Z,30.65
2022-12-23T00:16:20.956Z,30.50
2022-12-23T00:18:48.135Z,27.73
2022-12-23T00:21:17.558Z,27.73
2022-12-23T00:23:48.305Z,26.90
2022-12-23T00:26:27.249Z,27.33
2022-12-23T00:28:58.201Z,30.13
2022-12-23T00:31:25.597Z,30.83
2022-12-23T00:33:54.452Z,30.23
2022-12-23T00:36:27.878Z,28.60
2022-12-23T00:39:17.778Z,26.52
2022-12-23T00:42:04.475Z,28.27
2022-12-23T00:44:32.359Z,27.58
2022-12-23T00:46:59.479Z,26.38
2022-12-23T00:49:44.817Z,25.77
2022-12-23T00:52:18.277Z,24.58
2022-12-23T00:54:45.378Z,23.55
2022-12-23T00:57:12.688Z,24.05
2022-12-23T00:59:39.821Z,22.75
2022-12-23T01:02:26.075Z,23.58
2022-12-23T01:05:11.739Z,22.27
2022-12-23T01:07:39.288Z,23.50
2022-12-23T01:10:06.552Z,24.88
2022-12-23T01:12:33.560Z,25.33
2022-12-23T01:15:00.706Z,25.33
2022-12-23T01:17:27.985Z,28.30
2022-12-23T01:19:55.421Z,29.10
2022-12-23T01:22:22.667Z,26.73
2022-12-23T01:24:49.872Z,28.55
2022-12-23T01:27:17.021Z,29.63
2022-12-23T01:29:44.061Z,30.67
2022-12-23T01:32:11.137Z,32.38
2022-12-23T01:34:38.219Z,32.78
2022-12-23T01:37:05.871Z,28.20
2022-12-23T01:39:33.009Z,28.90
2022-12-23T01:42:18.751Z,28.75
2022-12-23T01:45:01.157Z,29.90
2022-12-23T01:47:34.149Z,27.38
2022-12-23T01:50:12.228Z,28.15
2022-12-23T01:53:06.997Z,26.15
2022-12-23T01:56:05.216Z,26.45
2022-12-23T01:58:34.550Z,24.92
2022-12-23T02:01:20.678Z,25.50
2022-12-23T02:03:50.839Z,24.33
2022-12-23T02:07:09.445Z,23.05
2022-12-23T02:09:39.021Z,24.50
2022-12-23T02:12:15.627Z,21.63
2022-12-23T02:15:28.931Z,24.65
2022-12-23T02:17:58.955Z,22.75
2022-12-23T02:20:47.376Z,20.48
2022-12-23T02:23:45.459Z,21.05
2022-12-23T02:26:27.784Z,21.00
2022-12-23T02:29:33.443Z,20.65
2022-12-23T02:32:14.852Z,22.73
2022-12-23T02:34:51.161Z,23.90
2022-12-23T02:37:51.575Z,25.98
2022-12-23T02:40:24.620Z,25.45
2022-12-23T02:42:58.810Z,23.67
2022-12-23T02:45:40.010Z,25.50
2022-12-23T02:48:16.182Z,24.55
2022-12-23T02:50:45.544Z,25.65
2022-12-23T02:53:29.637Z,26.92
2022-12-23T02:55:59.407Z,27.58
2022-12-23T02:58:32.812Z,27.88
2022-12-23T03:01:02.559Z,27.55
2022-12-23T03:03:29.710Z,28.20
2022-12-23T03:05:57.128Z,29.40
2022-12-23T03:08:31.882Z,28.60
2022-12-23T03:13:59.856Z,28.40
2022-12-23T03:16:29.195Z,29.15
2022-12-23T03:19:26.411Z,28.83
2022-12-23T03:22:01.405Z,27.48
2022-12-23T03:24:53.753Z,28.15
2022-12-23T03:28:00.156Z,27.58
2022-12-23T03:30:29.773Z,25.00
2022-12-23T03:33:12.874Z,24.67
2022-12-23T03:35:49.278Z,26.08
2022-12-23T03:38:19.328Z,27.85
2022-12-23T03:40:53.214Z,24.52
2022-12-23T03:43:26.142Z,24.83
2022-12-23T03:45:59.480Z,25.33
2022-12-23T03:48:52.230Z,24.90
2022-12-23T03:51:45.498Z,22.40
2022-12-23T03:54:18.431Z,21.75
2022-12-23T03:57:01.643Z,21.90
2022-12-23T03:59:43.113Z,21.63
2022-12-23T04:02:47.515Z,22.15
2022-12-23T04:05:20.819Z,22.70
2022-12-23T04:08:22.823Z,22.38
2022-12-23T04:10:50.799Z,22.52
2022-12-23T04:13:18.232Z,22.70
2022-12-23T04:15:45.725Z,22.73
2022-12-23T04:18:13.413Z,22.80
2022-12-23T04:20:40.581Z,22.13
2022-12-23T04:23:07.926Z,19.95
2022-12-23T04:25:35.039Z,21.23
2022-12-23T04:28:02.196Z,20.63
2022-12-23T04:30:33.933Z,20.90
2022-12-23T04:33:02.183Z,20.88
2022-12-23T04:35:30.301Z,21.13
2022-12-23T04:37:57.560Z,20.63
2022-12-23T04:40:24.624Z,22.38
2022-12-23T04:42:52.340Z,21.80
2022-12-23T04:45:19.621Z,22.42
2022-12-23T04:47:46.835Z,22.83
2022-12-23T04:50:15.668Z,23.60
2022-12-23T04:52:44.208Z,24.05
2022-12-23T04:55:11.643Z,25.77
2022-12-23T04:57:40.220Z,25.42
2022-12-23T05:00:08.202Z,28.77
2022-12-23T05:02:35.335Z,27.67
2022-12-23T05:05:02.625Z,26.95
2022-12-23T05:07:30.250Z,30.55
2022-12-23T05:10:02.008Z,31.10
2022-12-23T05:12:31.001Z,26.08
2022-12-23T05:14:58.059Z,25.48
2022-12-23T05:17:25.195Z,26.88
2022-12-23T05:19:52.649Z,30.00
2022-12-23T05:22:19.695Z,30.90
2022-12-23T05:24:47.112Z,30.27
2022-12-23T05:27:14.446Z,28.20
2022-12-23T05:29:41.625Z,28.30
2022-12-23T05:32:09.283Z,28.73
2022-12-23T05:34:36.549Z,27.73
2022-12-23T05:37:03.779Z,27.38
2022-12-23T05:39:31.011Z,25.92
2022-12-23T05:41:58.379Z,26.20
2022-12-23T05:44:25.506Z,25.02
2022-12-23T05:46:52.774Z,25.08
2022-12-23T05:49:19.869Z,24.33
2022-12-23T05:51:46.937Z,24.20
2022-12-23T05:54:14.567Z,25.60
2022-12-23T05:56:41.639Z,24.60
2022-12-23T05:59:09.323Z,26.10
2022-12-23T06:01:36.418Z,24.50
2022-12-23T06:04:04.004Z,25.67
2022-12-23T06:06:31.190Z,25.45
2022-12-23T06:09:00.163Z,25.50
2022-12-23T06:11:28.177Z,25.10
2022-12-23T06:13:55.449Z,24.25
2022-12-23T06:16:23.109Z,23.88
2022-12-23T06:18:55.658Z,23.10
2022-12-23T06:21:22.881Z,23.35
2022-12-23T06:23:50.047Z,23.63
2022-12-23T06:26:17.225Z,24.00
2022-12-23T06:28:44.767Z,23.02
2022-12-23T06:31:11.825Z,22.27
2022-12-23T06:33:38.909Z,23.77
2022-12-23T06:36:06.893Z,23.90
2022-12-23T06:38:34.008Z,26.20
2022-12-23T06:41:01.139Z,27.25
2022-12-23T06:43:28.200Z,26.50
2022-12-23T06:45:55.564Z,23.65
2022-12-23T06:48:22.733Z,25.48
2022-12-23T06:50:49.892Z,24.48
2022-12-23T06:53:16.997Z,25.63
2022-12-23T06:55:45.248Z,25.23
2022-12-23T06:58:12.428Z,24.42
2022-12-23T07:00:39.522Z,25.27
2022-12-23T07:03:07.026Z,22.95
2022-12-23T07:05:37.611Z,23.77
2022-12-23T07:08:05.890Z,23.70
2022-12-23T07:10:34.291Z,23.15
2022-12-23T07:13:01.722Z,23.63
2022-12-23T07:15:28.910Z,23.15
2022-12-23T07:17:56.093Z,21.77
2022-12-23T07:20:23.124Z,22.63
2022-12-23T07:22:53.498Z,20.95
2022-12-23T07:25:20.775Z,21.50
2022-12-23T07:27:47.986Z,21.15
2022-12-23T07:30:15.366Z,20.80
2022-12-23T07:32:42.489Z,20.15
2022-12-23T07:35:09.987Z,21.80
2022-12-23T07:37:39.346Z,20.77
2022-12-23T07:40:08.939Z,21.10
2022-12-23T07:42:46.106Z,19.58
2022-12-23T07:45:13.925Z,20.13
2022-12-23T07:47:41.908Z,19.85
2022-12-23T07:50:09.625Z,18.40
2022-12-23T07:52:36.692Z,19.27
2022-12-23T07:55:04.162Z,18.52
2022-12-23T07:57:37.707Z,18.05
2022-12-23T08:00:12.481Z,16.95
2022-12-23T08:02:39.998Z,14.98
2022-12-23T08:05:08.101Z,14.70
2022-12-23T08:07:35.925Z,13.82
2022-12-23T08:10:04.232Z,12.30
2022-12-23T08:12:31.478Z,12.50
2022-12-23T08:14:58.583Z,12.15
2022-12-23T08:17:30.519Z,12.32
2022-12-23T08:19:57.798Z,10.93
2022-12-23T08:22:25.045Z,10.85
2022-12-23T08:24:52.910Z,10.93
2022-12-23T08:27:19.993Z,11.23
2022-12-23T08:29:47.080Z,11.20
2022-12-23T08:32:14.405Z,11.05
2022-12-23T08:34:41.621Z,10.82
2022-12-23T08:37:09.040Z,11.30
2022-12-23T08:39:36.390Z,12.40
2022-12-23T08:42:04.114Z,12.93
2022-12-23T08:44:32.930Z,11.25
2022-12-23T08:47:00.184Z,13.10
2022-12-23T08:49:27.303Z,13.70
2022-12-23T08:51:54.400Z,13.10
2022-12-23T08:54:22.343Z,12.70
2022-12-23T08:56:49.736Z,12.32
2022-12-23T08:59:19.468Z,11.45
2022-12-23T09:01:48.196Z,11.25
2022-12-23T09:04:15.830Z,11.85
2022-12-23T09:06:43.705Z,12.35
2022-12-23T09:09:13.375Z,12.10
2022-12-23T09:11:40.465Z,12.48
2022-12-23T09:14:10.676Z,11.80
2022-12-23T09:16:38.067Z,12.13
2022-12-23T09:19:05.328Z,11.07
2022-12-23T09:21:32.794Z,10.60
2022-12-23T09:24:00.145Z,11.05
2022-12-23T09:26:30.180Z,11.15
2022-12-23T09:28:57.917Z,11.23
2022-12-23T09:31:30.505Z,11.60
2022-12-23T09:34:03.526Z,10.75
2022-12-23T09:36:30.694Z,10.55
2022-12-23T09:38:58.841Z,9.75
2022-12-23T09:41:48.865Z,9.65
2022-12-23T09:45:08.254Z,9.50
2022-12-23T09:47:35.857Z,7.85
2022-12-23T09:50:29.208Z,7.88
2022-12-23T09:53:03.841Z,8.52
2022-12-23T09:55:40.496Z,8.82
2022-12-23T09:58:17.809Z,7.82
2022-12-23T10:01:11.847Z,9.02
2022-12-23T10:04:04.574Z,8.50
2022-12-23T10:06:34.253Z,8.43
2022-12-23T10:09:03.967Z,8.32
2022-12-23T10:11:41.166Z,9.50
2022-12-23T10:14:18.961Z,8.82
2022-12-23T10:16:55.591Z,8.88
2022-12-23T10:19:46.099Z,9.30
2022-12-23T10:22:20.290Z,9.18
2022-12-23T10:24:51.689Z,9.30
2022-12-23T10:27:28.191Z,10.30
2022-12-23T10:29:56.687Z,9.73
2022-12-23T10:32:42.665Z,8.73
2022-12-23T10:35:38.107Z,9.45
2022-12-23T10:38:08.223Z,8.15
2022-12-23T10:41:12.913Z,9.27
2022-12-23T10:44:31.791Z,9.30
2022-12-23T10:47:04.699Z,10.10
2022-12-23T10:49:50.914Z,11.00
2022-12-23T10:52:21.345Z,8.90
2022-12-23T10:54:48.791Z,8.02
2022-12-23T10:57:18.110Z,9.48
2022-12-23T10:59:46.020Z,9.48
2022-12-23T11:02:13.490Z,10.38
2022-12-23T11:04:47.107Z,9.45
2022-12-23T11:07:43.291Z,9.70
2022-12-23T11:10:17.386Z,8.73
2022-12-23T11:12:50.399Z,9.30
2022-12-23T11:15:38.772Z,9.02
2022-12-23T11:18:07.705Z,8.27
2022-12-23T11:20:37.212Z,10.23
2022-12-23T11:23:06.249Z,11.18
2022-12-23T11:25:38.139Z,9.65
2022-12-23T11:28:14.254Z,9.20
2022-12-23T11:30:56.334Z,9.32
2022-12-23T11:33:33.037Z,9.50
2022-12-23T11:36:15.258Z,9.32
2022-12-23T11:39:03.122Z,8.90
2022-12-23T11:41:38.338Z,9.52
2022-12-23T11:44:27.659Z,8.68
2022-12-23T11:46:55.585Z,7.28
2022-12-23T11:49:31.756Z,7.88
2022-12-23T11:52:15.229Z,8.00
2022-12-23T11:54:54.372Z,8.40
2022-12-23T11:57:35.276Z,7.80
2022-12-23T12:00:06.518Z,8.43
2022-12-23T12:02:55.049Z,8.15
2022-12-23T12:05:33.037Z,7.53
2022-12-23T12:08:10.580Z,7.70
2022-12-23T12:10:40.289Z,7.75
2022-12-23T12:13:23.938Z,7.65
2022-12-23T12:16:10.884Z,8.32
2022-12-23T12:18:42.297Z,7.70
2022-12-23T12:21:21.363Z,7.70
2022-12-23T12:23:48.711Z,8.75
2022-12-23T12:26:37.282Z,8.70
2022-12-23T12:29:19.297Z,7.22
2022-12-23T12:31:50.829Z,6.47
2022-12-23T12:34:33.935Z,7.40
2022-12-23T12:37:27.469Z,7.45
2022-12-23T12:40:01.518Z,6.07
2022-12-23T12:45:24.416Z,6.80
2022-12-23T12:48:24.252Z,7.43
2022-12-23T12:50:57.042Z,7.07
2022-12-23T12:53:24.989Z,6.38
2022-12-23T12:56:00.529Z,7.70
2022-12-23T12:58:27.879Z,7.10
2022-12-23T13:01:01.524Z,7.47
2022-12-23T13:03:59.266Z,7.50
2022-12-23T13:07:02.037Z,7.82
2022-12-23T13:09:51.660Z,7.18
2022-12-23T13:12:40.278Z,7.57
2022-12-23T13:15:49.165Z,7.75
2022-12-23T13:19:01.959Z,7.47
2022-12-23T13:21:37.197Z,7.70
2022-12-23T13:24:22.936Z,8.23
2022-12-23T13:27:22.489Z,8.25
2022-12-23T13:30:14.471Z,6.65
2022-12-23T13:33:08.246Z,7.20
2022-12-23T13:36:05.403Z,6.50
2022-12-23T13:38:39.521Z,7.15
2022-12-23T13:41:32.079Z,7.85
2022-12-23T13:44:01.995Z,7.53
2022-12-23T13:46:38.541Z,6.68
2022-12-23T13:49:24.505Z,7.72
2022-12-23T13:52:15.705Z,8.20
2022-12-23T13:54:54.996Z,8.18
2022-12-23T13:58:00.021Z,9.02
2022-12-23T14:00:34.767Z,8.10
2022-12-23T14:03:02.169Z,8.20
2022-12-23T14:05:45.483Z,8.38
2022-12-23T14:08:40.727Z,7.50
2022-12-23T14:11:20.899Z,7.68
2022-12-23T14:13:50.986Z,7.25
2022-12-23T14:16:21.608Z,8.63
2022-12-23T14:18:56.642Z,8.35
2022-12-23T14:24:43.319Z,9.33
2022-12-23T14:27:49.602Z,9.02
2022-12-23T14:32:50.262Z,9.35
2022-12-23T14:35:22.642Z,9.88
2022-12-23T14:38:05.918Z,8.98
2022-12-23T14:40:39.115Z,9.60
2022-12-23T14:43:23.678Z,10.90
2022-12-23T14:45:54.787Z,9.95
2022-12-23T14:48:34.204Z,10.52
2022-12-23T14:51:21.167Z,9.98
2022-12-23T14:53:54.675Z,9.68
2022-12-23T14:56:28.761Z,10.25
2022-12-23T14:59:14.624Z,9.77
2022-12-23T15:01:54.587Z,9.02
2022-12-23T15:04:50.012Z,9.18
2022-12-23T15:07:28.803Z,8.70
2022-12-23T15:10:02.263Z,8.68
2022-12-23T15:12:36.318Z,9.18
2022-12-23T15:15:13.638Z,8.90
2022-12-23T15:17:40.985Z,8.80
2022-12-23T15:20:14.844Z,8.68
2022-12-23T15:22:46.265Z,7.95
2022-12-23T15:25:22.648Z,8.35
2022-12-23T15:27:53.480Z,8.63
2022-12-23T15:30:24.634Z,8.52
2022-12-23T15:32:58.628Z,8.73
2022-12-23T15:35:32.185Z,8.68
2022-12-23T15:38:01.868Z,8.23
2022-12-23T15:40:28.902Z,8.55
2022-12-23T15:42:56.513Z,7.95
2022-12-23T15:45:32.528Z,7.72
2022-12-23T15:48:03.090Z,8.27
2022-12-23T15:50:31.414Z,9.30
2022-12-23T15:53:04.927Z,9.25
2022-12-23T15:55:34.529Z,9.65
2022-12-23T15:58:03.249Z,9.60
2022-12-23T16:00:42.124Z,9.55
2022-12-23T16:03:32.649Z,10.32
2022-12-23T16:06:21.458Z,10.20
2022-12-23T16:09:01.957Z,10.45
2022-12-23T16:11:47.851Z,10.30
2022-12-23T16:14:24.762Z,10.07
2022-12-23T16:16:53.208Z,9.20
2022-12-23T16:19:53.376Z,9.15
2022-12-23T16:22:21.042Z,9.27
2022-12-23T16:24:48.073Z,9.48
2022-12-23T16:27:25.640Z,9.70
2022-12-23T16:29:52.775Z,9.23
2022-12-23T16:32:20.400Z,8.80
2022-12-23T16:34:51.478Z,8.23
2022-12-23T16:37:18.562Z,8.60
2022-12-23T16:39:45.783Z,8.43
2022-12-23T16:42:12.957Z,8.48
2022-12-23T16:44:39.961Z,8.75
2022-12-23T16:47:13.780Z,7.78
2022-12-23T16:49:41.098Z,8.50
2022-12-23T16:52:12.908Z,8.23
2022-12-23T16:54:40.209Z,8.60
2022-12-23T16:57:09.401Z,8.30
2022-12-23T16:59:37.735Z,8.57
2022-12-23T17:02:04.868Z,7.85
2022-12-23T17:04:32.023Z,8.40
2022-12-23T17:06:59.164Z,8.73
2022-12-23T17:09:26.479Z,9.07
2022-12-23T17:11:54.387Z,8.93
2022-12-23T17:14:24.500Z,8.32
2022-12-23T17:16:52.569Z,8.52
2022-12-23T17:19:27.756Z,8.30
2022-12-23T17:22:01.302Z,8.65
2022-12-23T17:24:28.670Z,8.30
2022-12-23T17:26:57.099Z,7.93
2022-12-23T17:29:24.708Z,7.47
2022-12-23T17:31:52.917Z,7.63
2022-12-23T17:34:23.200Z,8.25
2022-12-23T17:36:51.460Z,8.43
2022-12-23T17:39:19.651Z,8.02
2022-12-23T17:41:47.410Z,7.82
2022-12-23T17:44:16.112Z,8.45
2022-12-23T17:46:43.733Z,7.78
2022-12-23T17:49:11.975Z,9.13
2022-12-23T17:51:40.324Z,8.50
2022-12-23T17:54:11.919Z,8.25
2022-12-23T17:56:39.212Z,7.38
2022-12-23T17:59:06.424Z,8.40
2022-12-23T18:01:33.793Z,8.15
2022-12-23T18:04:00.985Z,8.73
2022-12-23T18:06:29.502Z,8.63
2022-12-23T18:08:57.980Z,8.35
2022-12-23T18:11:44.553Z,8.98
2022-12-23T18:14:18.516Z,8.65
2022-12-23T18:16:46.543Z,8.80
2022-12-23T18:19:19.090Z,8.80
2022-12-23T18:21:47.143Z,8.25
2022-12-23T18:24:14.266Z,8.75
2022-12-23T18:26:41.713Z,8.20
2022-12-23T18:29:09.215Z,8.50
2022-12-23T18:31:49.992Z,7.90
2022-12-23T18:34:18.671Z,8.48
2022-12-23T18:36:46.601Z,9.13
2022-12-23T18:39:13.871Z,8.60
2022-12-23T18:41:42.066Z,8.50
2022-12-23T18:44:18.893Z,8.75
2022-12-23T18:46:46.527Z,7.78
2022-12-23T18:49:14.135Z,9.23
2022-12-23T18:51:41.221Z,9.00
2022-12-23T18:54:14.504Z,8.18
2022-12-23T18:56:41.784Z,9.25
2022-12-23T18:59:27.437Z,9.15
2022-12-23T19:02:00.179Z,8.63
2022-12-23T19:04:27.707Z,9.57
2022-12-23T19:06:56.689Z,9.25
2022-12-23T19:09:25.515Z,9.32
2022-12-23T19:11:54.437Z,9.82
2022-12-23T19:14:22.007Z,9.90
2022-12-23T19:16:52.026Z,10.02
2022-12-23T19:19:20.568Z,9.48
2022-12-23T19:21:47.898Z,8.45
2022-12-23T19:24:15.158Z,9.50
2022-12-23T19:26:42.526Z,9.15
2022-12-23T19:29:09.620Z,8.85
2022-12-23T19:31:36.982Z,9.18
2022-12-23T19:34:06.058Z,10.30
2022-12-23T19:36:36.628Z,9.65
2022-12-23T19:39:04.665Z,9.57
2022-12-23T19:41:31.792Z,9.25
2022-12-23T19:43:58.921Z,10.32
2022-12-23T19:46:26.055Z,9.77
2022-12-23T19:48:53.657Z,9.80
2022-12-23T19:51:21.020Z,10.05
2022-12-23T19:53:50.926Z,10.40
2022-12-23T19:56:22.564Z,10.02
2022-12-23T19:58:50.407Z,10.93
2022-12-23T20:01:20.168Z,11.32
2022-12-23T20:03:49.171Z,10.75
2022-12-23T20:06:26.416Z,10.95
2022-12-23T20:08:59.781Z,10.40
2022-12-23T20:11:30.721Z,10.95
2022-12-23T20:13:59.025Z,10.13
2022-12-23T20:16:27.412Z,10.32
2022-12-23T20:18:54.886Z,9.80
2022-12-23T20:21:22.373Z,11.80
2022-12-23T20:23:49.754Z,11.05
2022-12-23T20:26:20.834Z,11.43
2022-12-23T20:28:48.063Z,10.27
2022-12-23T20:31:19.124Z,10.68
2022-12-23T20:33:47.280Z,10.55
2022-12-23T20:36:16.354Z,10.88
2022-12-23T20:38:45.885Z,10.90
2022-12-23T20:41:16.687Z,11.50
2022-12-23T20:43:46.072Z,12.85
2022-12-23T20:46:22.719Z,12.13
2022-12-23T20:48:50.502Z,11.65
2022-12-23T20:51:20.713Z,13.15
2022-12-23T20:53:47.979Z,11.95
2022-12-23T20:56:18.155Z,12.85
2022-12-23T20:59:02.662Z,12.45
2022-12-23T21:01:35.429Z,13.48
2022-12-23T21:04:05.552Z,13.02
2022-12-23T21:06:34.006Z,13.45
2022-12-23T21:09:04.357Z,14.40
2022-12-23T21:11:34.406Z,13.75
2022-12-23T21:14:06.315Z,13.48
2022-12-23T21:16:37.211Z,13.00
2022-12-23T21:19:06.597Z,12.45
2022-12-23T21:21:34.194Z,12.15
2022-12-23T21:24:04.965Z,11.50
2022-12-23T21:26:34.412Z,10.88
2022-12-23T21:29:04.322Z,11.43
2022-12-23T21:31:34.113Z,11.88
2022-12-23T21:34:01.861Z,11.25
2022-12-23T21:36:32.088Z,12.50
2022-12-23T21:39:00.507Z,12.27
2022-12-23T21:41:31.190Z,11.68
2022-12-23T21:44:00.312Z,12.02
2022-12-23T21:46:28.999Z,12.10
2022-12-23T21:48:57.608Z,11.77
2022-12-23T21:51:38.874Z,11.80
2022-12-23T21:54:07.974Z,11.63
2022-12-23T21:56:36.197Z,11.98
2022-12-23T21:59:10.414Z,12.27
2022-12-23T22:01:37.706Z,12.38
2022-12-23T22:04:05.019Z,12.30
2022-12-23T22:06:36.677Z,12.38
2022-12-23T22:09:06.064Z,12.23
2022-12-23T22:11:35.427Z,12.65
2022-12-23T22:14:04.422Z,11.88
2022-12-23T22:16:32.391Z,11.52
2022-12-23T22:19:01.334Z,10.40
2022-12-23T22:21:32.034Z,10.60
2022-12-23T22:24:02.909Z,11.73
2022-12-23T22:26:32.625Z,12.57
2022-12-23T22:29:01.702Z,11.98
2022-12-23T22:31:34.524Z,11.57
2022-12-23T22:34:02.285Z,11.40
2022-12-23T22:36:29.836Z,11.48
2022-12-23T22:38:59.527Z,11.88
2022-12-23T22:41:28.135Z,12.10
2022-12-23T22:43:56.244Z,12.25
2022-12-23T22:46:24.799Z,12.07
2022-12-23T22:48:53.220Z,10.98
2022-12-23T22:51:26.885Z,11.10
2022-12-23T22:53:54.790Z,11.82
2022-12-23T22:56:23.470Z,11.13
2022-12-23T22:58:51.198Z,10.07
2022-12-23T23:01:33.674Z,10.00
2022-12-23T23:04:02.899Z,10.25
2022-12-23T23:06:39.718Z,11.05
2022-12-23T23:09:09.601Z,11.20
2022-12-23T23:11:37.027Z,11.00
2022-12-23T23:14:04.255Z,11.20
2022-12-23T23:16:32.021Z,10.27
2022-12-23T23:19:00.138Z,10.43
2022-12-23T23:21:27.475Z,10.07
2022-12-23T23:23:55.229Z,10.70
2022-12-23T23:26:27.081Z,10.10
2022-12-23T23:28:56.323Z,11.77
2022-12-23T23:34:11.360Z,10.60
2022-12-23T23:36:39.648Z,10.23
2022-12-23T23:39:06.816Z,10.02
2022-12-23T23:41:34.468Z,10.02
2022-12-23T23:44:01.572Z,9.73
2022-12-23T23:46:29.058Z,10.02
2022-12-23T23:48:56.147Z,12.07
2022-12-23T23:51:23.430Z,12.07
2022-12-23T23:53:50.518Z,10.18
2022-12-23T23:56:23.842Z,10.98
2022-12-23T23:58:52.795Z,10.85
